Temp: 17.1°C   Baro: 1016.0mb
  Wind: 2.9mph   Dir: SSW (207°)
  Rain: 0.6mm (0.0mm/hr)
  Solar: 622W/m2  Hum: 69%
 
Bath Spa Weather Station Historical Data
Daily Summary for July 31, 2020 Units:  English    Metric   Both
Daily Weekly Monthly Yearly Custom
  High: Low: Average:
Temperature: 88.6 °F 61.6 °F 71.9 °F
Dew Point: 68.3 °F 53.8 °F 59.6 °F
Humidity: 85% 44% 67%
Wind Speed: 11mph 0mph 4.6mph
Wind Gust: 18mph - -
Wind- - SSW
Pressure: 29.95 in 29.77 in -
Precipitation: 0.00 in    
Historical Graphs
 
 
Tabular Data for July 31, 2020
Time Temperature Dew Point Pressure Wind Wind Speed Wind Gust Humidity Rainfall Rate (Hourly) solar
00:04 66.6 °F 54.9 °F 29.95 in ESE 1.7 mph 5 mph 66% 0.00 in 0 W/m2
00:09 66.6 °F 54.9 °F 29.94 in SE 1.2 mph 4 mph 66% 0.00 in 0 W/m2
00:14 66.6 °F 54.9 °F 29.94 in SE 0.6 mph 4 mph 66% 0.00 in 0 W/m2
00:19 66.4 °F 54.8 °F 29.94 in ESE 0.4 mph 4 mph 66.4% 0.00 in 0 W/m2
00:24 66.3 °F 55 °F 29.94 in Calm   4 mph 67% 0.00 in 0 W/m2
00:29 65.9 °F 55 °F 29.94 in SE 0.4 mph 3 mph 67.8% 0.00 in 0 W/m2
00:34 65.5 °F 54.9 °F 29.94 in SE 0.4 mph 3 mph 68.6% 0.00 in 0 W/m2
00:39 64.9 °F 54.8 °F 29.94 in Calm   1 mph 70% 0.00 in 0 W/m2
00:44 64.2 °F 54.7 °F 29.94 in Calm     71% 0.00 in 0 W/m2
00:49 63.9 °F 54.7 °F 29.94 in Calm   1 mph 72% 0.00 in 0 W/m2
00:54 63.6 °F 54.4 °F 29.94 in Calm     72% 0.00 in 0 W/m2
00:59 63.2 °F 54.2 °F 29.94 in Calm   1 mph 72.6% 0.00 in 0 W/m2
01:04 63.1 °F 54.2 °F 29.94 in Calm     73% 0.00 in 0 W/m2
01:09 63 °F 54.1 °F 29.93 in Calm     73% 0.00 in 0 W/m2
01:14 62.8 °F 54 °F 29.93 in Calm     73% 0.00 in 0 W/m2
01:19 62.6 °F 53.8 °F 29.93 in Calm     73% 0.00 in 0 W/m2
01:24 62.5 °F 53.8 °F 29.93 in ESE 0.4 mph 5 mph 73.4% 0.00 in 0 W/m2
01:29 62.8 °F 54 °F 29.93 in SE 0.5 mph 4 mph 73% 0.00 in 0 W/m2
01:34 63 °F 54.1 °F 29.93 in Calm   1 mph 73% 0.00 in 0 W/m2
01:39 63 °F 54 °F 29.92 in SE 0.4 mph 4 mph 72.8% 0.00 in 0 W/m2
01:44 63.2 °F 54.1 °F 29.92 in SE 0.8 mph 5 mph 72.2% 0.00 in 0 W/m2
01:49 63.6 °F 54.1 °F 29.92 in ESE 2.8 mph 6 mph 71.2% 0.00 in 0 W/m2
01:54 64.1 °F 54.3 °F 29.92 in SE 1.8 mph 4 mph 70.4% 0.00 in 0 W/m2
01:59 64.7 °F 54.2 °F 29.91 in ESE 2.4 mph 5 mph 69% 0.00 in 0 W/m2
02:04 64.9 °F 54.1 °F 29.91 in ESE 1.9 mph 5 mph 68% 0.00 in 0 W/m2
02:09 65.1 °F 54.3 °F 29.91 in SE 3 mph 6 mph 67.8% 0.00 in 0 W/m2
02:14 65.4 °F 54.2 °F 29.91 in SE 2.4 mph 6 mph 67% 0.00 in 0 W/m2
02:19 65.5 °F 54.3 °F 29.91 in SE 2.8 mph 8 mph 67% 0.00 in 0 W/m2
02:24 65.4 °F 54.2 °F 29.91 in SE 3.7 mph 8 mph 67% 0.00 in 0 W/m2
02:29 65.4 °F 54.2 °F 29.91 in SE 1.6 mph 6 mph 67% 0.00 in 0 W/m2
02:34 65.3 °F 54.1 °F 29.90 in SE 2.5 mph 7 mph 67% 0.00 in 0 W/m2
02:39 65.2 °F 54.1 °F 29.90 in SSE 3.2 mph 7 mph 67% 0.00 in 0 W/m2
02:44 65.2 °F 54 °F 29.90 in SE 3.2 mph 7 mph 67% 0.00 in 0 W/m2
02:49 65.4 °F 54.2 °F 29.89 in SE 3.6 mph 9 mph 67% 0.00 in 0 W/m2
02:54 65.4 °F 54.2 °F 29.89 in SSE 2.3 mph 7 mph 67% 0.00 in 0 W/m2
02:59 65.3 °F 54.1 °F 29.89 in SE 2.7 mph 7 mph 67% 0.00 in 0 W/m2
03:04 65.1 °F 54 °F 29.89 in SE 1.6 mph 7 mph 67% 0.00 in 0 W/m2
03:09 65.3 °F 54.1 °F 29.88 in ESE 2.7 mph 7 mph 67% 0.00 in 0 W/m2
03:14 65.3 °F 54.1 °F 29.88 in SE 1.3 mph 9 mph 67% 0.00 in 0 W/m2
03:19 65.3 °F 54.1 °F 29.88 in SE 2.5 mph 9 mph 67% 0.00 in 0 W/m2
03:24 65.5 °F 54.3 °F 29.88 in SE 4.1 mph 7 mph 67% 0.00 in 0 W/m2
03:29 65.5 °F 54.3 °F 29.88 in SE 3.3 mph 6 mph 67% 0.00 in 0 W/m2
03:34 65.5 °F 54.3 °F 29.88 in East 4.6 mph 8 mph 67% 0.00 in 0 W/m2
03:39 65.6 °F 54.3 °F 29.87 in ESE 4.1 mph 8 mph 67% 0.00 in 0 W/m2
03:44 65.5 °F 54.3 °F 29.87 in ESE 2.9 mph 7 mph 67% 0.00 in 0 W/m2
03:49 65.5 °F 54.3 °F 29.87 in East 1.3 mph 6 mph 67% 0.00 in 0 W/m2
03:54 65.3 °F 54.5 °F 29.87 in ESE 2 mph 8 mph 67.8% 0.00 in 0 W/m2
03:59 65.3 °F 54.5 °F 29.87 in ESE 3.3 mph 8 mph 68% 0.00 in 0 W/m2
04:04 65.2 °F 54.3 °F 29.87 in ESE 3.4 mph 8 mph 68% 0.00 in 0 W/m2
04:09 65.1 °F 54.3 °F 29.86 in ESE 4.1 mph 9 mph 68% 0.00 in 0 W/m2
04:14 65.1 °F 54.3 °F 29.86 in East 4.5 mph 11 mph 68% 0.00 in 0 W/m2
04:19 65.1 °F 54.3 °F 29.86 in ESE 4.5 mph 10 mph 68% 0.00 in 0 W/m2
04:24 65.1 °F 54.3 °F 29.86 in ESE 3.4 mph 9 mph 68% 0.00 in 0 W/m2
04:29 65.1 °F 54.3 °F 29.86 in ESE 3.7 mph 11 mph 68% 0.00 in 0 W/m2
04:34 65.1 °F 54.3 °F 29.86 in East 1 mph 8 mph 68% 0.00 in 0 W/m2
04:39 64.9 °F 54.5 °F 29.86 in ESE 1.4 mph 6 mph 69% 0.00 in 0 W/m2
04:44 64.9 °F 54.5 °F 29.85 in East 2.4 mph 7 mph 69% 0.00 in 0 W/m2
04:49 64.9 °F 54.5 °F 29.85 in ESE 3 mph 7 mph 69% 0.00 in 0 W/m2
04:53 65.1 °F 54.7 °F 29.85 in East 4.7 mph 12 mph 69% 0.00 in 0 W/m2
04:59 65.1 °F 54.7 °F 29.85 in East 2 mph 12 mph 69% 0.00 in 0 W/m2
05:04 65.3 °F 54.9 °F 29.85 in ESE 3.2 mph 7 mph 69% 0.00 in 0 W/m2
05:09 65.3 °F 54.9 °F 29.85 in ESE 3.2 mph 8 mph 69% 0.00 in 0 W/m2
05:14 65.4 °F 54.8 °F 29.85 in East 5 mph 10 mph 68.4% 0.00 in 0 W/m2
05:19 65.5 °F 54.9 °F 29.85 in ESE 2.5 mph 7 mph 68.8% 0.00 in 0 W/m2
05:24 65.5 °F 54.9 °F 29.84 in ESE 3 mph 7 mph 68.8% 0.00 in 0 W/m2
05:29 65.5 °F 54.8 °F 29.84 in SE 3.6 mph 8 mph 68.4% 0.00 in 0 W/m2
05:34 65.3 °F 54.7 °F 29.84 in ESE 2.6 mph 7 mph 68.6% 0.00 in 0 W/m2
05:39 65.1 °F 54.7 °F 29.84 in ESE 5.2 mph 9 mph 69% 0.00 in 5 W/m2
05:44 65.1 °F 54.7 °F 29.84 in ESE 3.4 mph 7 mph 69% 0.00 in 7 W/m2
05:49 65.1 °F 54.7 °F 29.84 in ESE 2 mph 7 mph 69% 0.00 in 11 W/m2
05:54 64.9 °F 54.6 °F 29.84 in ESE 3.2 mph 10 mph 69% 0.00 in 12 W/m2
05:59 65 °F 54.6 °F 29.84 in ESE 3 mph 9 mph 69% 0.00 in 14 W/m2
06:04 64.9 °F 54.5 °F 29.84 in ESE 3.5 mph 6 mph 69% 0.00 in 16 W/m2
06:09 64.9 °F 54.5 °F 29.84 in East 6.2 mph 9 mph 69% 0.00 in 19 W/m2
06:14 65.1 °F 54.7 °F 29.84 in East 3.3 mph 9 mph 69% 0.00 in 21 W/m2
06:19 65.1 °F 54.7 °F 29.84 in East 4.1 mph 8 mph 69% 0.00 in 23 W/m2
06:24 65 °F 54.6 °F 29.84 in East 2 mph 7 mph 69% 0.00 in 25 W/m2
06:29 64.9 °F 54.5 °F 29.84 in East 2.5 mph 7 mph 69% 0.00 in 26 W/m2
06:34 64.9 °F 54.8 °F 29.84 in East 1 mph 6 mph 69.8% 0.00 in 28 W/m2
06:39 64.9 °F 54.9 °F 29.83 in East 0.6 mph 7 mph 70% 0.00 in 30 W/m2
06:44 64.9 °F 54.9 °F 29.83 in East 1 mph 6 mph 70% 0.00 in 32 W/m2
06:49 64.9 °F 54.9 °F 29.83 in ESE 1.6 mph 7 mph 70% 0.00 in 33 W/m2
06:54 65.1 °F 55 °F 29.83 in ESE 1.7 mph 8 mph 70% 0.00 in 37 W/m2
06:59 65.4 °F 55.1 °F 29.83 in East 1.6 mph 8 mph 69.4% 0.00 in 42 W/m2
07:04 65.7 °F 55.4 °F 29.83 in ESE 1.3 mph 5 mph 69.4% 0.00 in 51 W/m2
07:09 66 °F 55.6 °F 29.82 in ESE 4 mph 11 mph 69% 0.00 in 63 W/m2
07:14 66.5 °F 55.9 °F 29.82 in ESE 3 mph 9 mph 68.8% 0.00 in 74 W/m2
07:19 66.6 °F 55.9 °F 29.82 in ESE 2.5 mph 7 mph 68.4% 0.00 in 88 W/m2
07:24 66.9 °F 55.9 °F 29.82 in ESE 4.2 mph 9 mph 68% 0.00 in 104 W/m2
07:29 67.3 °F 56.2 °F 29.82 in ESE 2.7 mph 8 mph 67.8% 0.00 in 118 W/m2
07:34 67.6 °F 56.3 °F 29.82 in SE 2.9 mph 8 mph 67.2% 0.00 in 134 W/m2
07:39 67.8 °F 56.5 °F 29.82 in ESE 4.4 mph 9 mph 67% 0.00 in 151 W/m2
07:44 68.3 °F 56.9 °F 29.82 in ESE 5.3 mph 10 mph 67% 0.00 in 165 W/m2
07:49 68.5 °F 56.8 °F 29.82 in East 4.9 mph 10 mph 66.4% 0.00 in 179 W/m2
07:54 68.8 °F 57 °F 29.82 in East 4.1 mph 10 mph 66.2% 0.00 in 195 W/m2
07:59 69.2 °F 57.3 °F 29.82 in ESE 3.3 mph 9 mph 66% 0.00 in 211 W/m2
08:04 69.6 °F 57.4 °F 29.82 in ESE 3.9 mph 8 mph 65% 0.00 in 227 W/m2
08:09 70.1 °F 57.8 °F 29.82 in ESE 3.2 mph 8 mph 65% 0.00 in 243 W/m2
08:14 70.4 °F 57.8 °F 29.82 in ESE 4.7 mph 8 mph 64.2% 0.00 in 258 W/m2
08:19 70.9 °F 57.9 °F 29.82 in SE 6.8 mph 11 mph 63.6% 0.00 in 271 W/m2
08:24 71.3 °F 57.9 °F 29.82 in ESE 4.8 mph 10 mph 62.8% 0.00 in 283 W/m2
08:29 71.6 °F 57.9 °F 29.82 in ESE 7.3 mph 16 mph 62% 0.00 in 301 W/m2
08:34 72 °F 57.9 °F 29.82 in ESE 7.5 mph 16 mph 61.2% 0.00 in 318 W/m2
08:39 72.4 °F 58 °F 29.82 in SE 7 mph 14 mph 60.6% 0.00 in 336 W/m2
08:44 72.7 °F 58.1 °F 29.82 in SE 6.5 mph 13 mph 60.2% 0.00 in 350 W/m2
08:49 73 °F 58.3 °F 29.82 in SE 6.1 mph 15 mph 60% 0.00 in 366 W/m2
08:54 73.4 °F 58.6 °F 29.81 in SE 4.8 mph 12 mph 60% 0.00 in 378 W/m2
08:59 73.8 °F 58.8 °F 29.82 in ESE 3.9 mph 9 mph 59.6% 0.00 in 390 W/m2
09:04 74.2 °F 58.9 °F 29.82 in ESE 4.7 mph 11 mph 59% 0.00 in 403 W/m2
09:09 74.7 °F 59.2 °F 29.82 in SE 4.4 mph 15 mph 58.6% 0.00 in 415 W/m2
09:14 75 °F 59.2 °F 29.82 in SE 5.8 mph 11 mph 58% 0.00 in 429 W/m2
09:19 75.2 °F 59.5 °F 29.82 in SE 4.6 mph 9 mph 58.2% 0.00 in 443 W/m2
09:24 75.8 °F 59.9 °F 29.82 in East 4.4 mph 10 mph 58% 0.00 in 454 W/m2
09:29 76.5 °F 60.3 °F 29.81 in ESE 4.2 mph 11 mph 57.4% 0.00 in 468 W/m2
09:34 76.8 °F 60.3 °F 29.81 in SE 4.7 mph 10 mph 56.8% 0.00 in 475 W/m2
09:39 76.9 °F 60.1 °F 29.81 in SSE 3.2 mph 9 mph 56.2% 0.00 in 487 W/m2
09:43 77.1 °F 60.1 °F 29.81 in SE 4.7 mph 9 mph 55.8% 0.00 in 497 W/m2
09:49 77.3 °F 59.6 °F 29.81 in SE 5 mph 11 mph 54.5% 0.00 in 508 W/m2
09:54 77.8 °F 60.3 °F 29.81 in ESE 5.4 mph 10 mph 55% 0.00 in 519 W/m2
09:59 78.2 °F 60.4 °F 29.81 in SE 6.4 mph 11 mph 54.4% 0.00 in 531 W/m2
10:04 78.9 °F 60.8 °F 29.81 in ESE 7.4 mph 11 mph 53.8% 0.00 in 541 W/m2
10:09 79.2 °F 61.1 °F 29.81 in SSE 1.9 mph 11 mph 53.8% 0.00 in 552 W/m2
10:14 79.1 °F 61 °F 29.81 in SSE 2.7 mph 9 mph 53.8% 0.00 in 563 W/m2
10:19 79.6 °F 61.5 °F 29.81 in SE 3.4 mph 10 mph 54.2% 0.00 in 573 W/m2
10:24 80.4 °F 61.8 °F 29.80 in SSE 2.4 mph 7 mph 53% 0.00 in 584 W/m2
10:29 80.4 °F 61.7 °F 29.80 in South 2.6 mph 7 mph 53% 0.00 in 591 W/m2
10:34 80.7 °F 61.8 °F 29.80 in SE 3.2 mph 9 mph 52.6% 0.00 in 599 W/m2
10:39 81.5 °F 61.9 °F 29.80 in SE 4.4 mph 11 mph 51.4% 0.00 in 610 W/m2
10:44 81.9 °F 62.2 °F 29.79 in SE 5.7 mph 10 mph 51.4% 0.00 in 619 W/m2
10:49 82 °F 62.1 °F 29.80 in SE 3.7 mph 10 mph 51% 0.00 in 626 W/m2
10:53 82.7 °F 62.4 °F 29.79 in ESE 4.2 mph 9 mph 50.5% 0.00 in 636 W/m2
10:59 82.8 °F 62.4 °F 29.79 in SE 4.7 mph 9 mph 50.2% 0.00 in 645 W/m2
11:04 82.9 °F 62.4 °F 29.79 in SE 2.4 mph 8 mph 50% 0.00 in 656 W/m2
11:09 83.2 °F 62.4 °F 29.79 in SSE 4 mph 8 mph 49.6% 0.00 in 689 W/m2
11:14 83 °F 62 °F 29.79 in SSW 3.3 mph 8 mph 49% 0.00 in 635 W/m2
11:19 82.9 °F 61.9 °F 29.79 in South 3.7 mph 10 mph 49% 0.00 in 795 W/m2
11:29 83.5 °F 61.9 °F 29.79 in South 4.5 mph 10 mph 48.4% 0.00 in 795 W/m2
11:34 83.8 °F 62 °F 29.78 in SSE 3.2 mph 8 mph 48% 0.00 in 846 W/m2
11:44 84.7 °F 62.4 °F 29.78 in South 3.5 mph 11 mph 47.3% 0.00 in 853 W/m2
11:49 84.8 °F 62.1 °F 29.78 in SSE 5.6 mph 11 mph 46.6% 0.00 in 812 W/m2
11:54 84.4 °F 62.4 °F 29.78 in South 9 mph 13 mph 47.6% 0.00 in 756 W/m2
11:59 84.5 °F 62.4 °F 29.78 in South 6.2 mph 11 mph 47.6% 0.00 in 722 W/m2
12:04 84.7 °F 62.4 °F 29.78 in South 7.1 mph 11 mph 47.2% 0.00 in 721 W/m2
12:09 85.2 °F 62.3 °F 29.78 in SSE 6.2 mph 12 mph 46.4% 0.00 in 728 W/m2
12:14 85.5 °F 62.6 °F 29.78 in South 4.1 mph 10 mph 46.4% 0.00 in 733 W/m2
12:19 86 °F 62.7 °F 29.78 in SSE 5.5 mph 8 mph 45.8% 0.00 in 740 W/m2
12:24 86.2 °F 62.6 °F 29.78 in SSE 3.7 mph 9 mph 45.6% 0.00 in 742 W/m2
12:29 86.3 °F 62.6 °F 29.78 in SSW 6 mph 13 mph 45.2% 0.00 in 749 W/m2
12:34 87 °F 62.6 °F 29.78 in SW 5.1 mph 8 mph 44.2% 0.00 in 749 W/m2
12:38 87.3 °F 63.3 °F 29.78 in SSW 6 mph 10 mph 45% 0.00 in 752 W/m2
12:44 87.4 °F 62.8 °F 29.78 in South 2.5 mph 9 mph 44% 0.00 in 756 W/m2
12:49 87 °F 62.6 °F 29.78 in SSE 4.5 mph 12 mph 44.2% 0.00 in 758 W/m2
12:54 86.5 °F 62.6 °F 29.78 in South 4.8 mph 11 mph 45% 0.00 in 763 W/m2
12:59 87.1 °F 63.3 °F 29.78 in South 3 mph 7 mph 45.2% 0.00 in 761 W/m2
13:04 87.7 °F 63.2 °F 29.78 in South 6.3 mph 11 mph 44.2% 0.00 in 766 W/m2
13:09 86.2 °F 62.6 °F 29.78 in South 5.6 mph 10 mph 45.4% 0.00 in 770 W/m2
13:14 86.3 °F 63 °F 29.78 in South 3.6 mph 8 mph 45.8% 0.00 in 770 W/m2
13:19 87 °F 63.5 °F 29.78 in SSE 4 mph 7 mph 45.6% 0.00 in 772 W/m2
13:29 87.8 °F 64.2 °F 29.78 in WSW 4.8 mph 8 mph 45.6% 0.00 in 770 W/m2
13:34 87.6 °F 64.1 °F 29.78 in South 5.1 mph 11 mph 45.8% 0.00 in 770 W/m2
13:39 87.3 °F 64.7 °F 29.78 in WSW 5.1 mph 9 mph 47.2% 0.00 in 770 W/m2
13:44 87.4 °F 64.9 °F 29.78 in West 6 mph 12 mph 47.2% 0.00 in 765 W/m2
13:49 87.7 °F 65.4 °F 29.78 in WSW 4.5 mph 10 mph 47.8% 0.00 in 766 W/m2
13:54 87.6 °F 65.5 °F 29.78 in West 7 mph 10 mph 48% 0.00 in 763 W/m2
13:59 87.4 °F 65.5 °F 29.77 in WSW 3.8 mph 10 mph 48.4% 0.00 in 763 W/m2
14:09 87.8 °F 66.2 °F 29.78 in West 5.2 mph 10 mph 49% 0.00 in 758 W/m2
14:14 87.7 °F 66.3 °F 29.78 in WNW 5.7 mph 11 mph 49.3% 0.00 in 752 W/m2
14:19 87.6 °F 66.8 °F 29.78 in WSW 2 mph 8 mph 50.2% 0.00 in 749 W/m2
14:24 88.2 °F 66.7 °F 29.78 in SW 3.7 mph 9 mph 49.2% 0.00 in 768 W/m2
14:29 88.6 °F 67.3 °F 29.77 in West 3.2 mph 9 mph 49.6% 0.00 in 805 W/m2
14:34 88 °F 66.9 °F 29.77 in WSW 5 mph 10 mph 49.8% 0.00 in 707 W/m2
14:39 87.8 °F 67.2 °F 29.77 in WSW 3.4 mph 8 mph 50.6% 0.00 in 221 W/m2
14:44 88.2 °F 67.4 °F 29.77 in WSW 4 mph 10 mph 50.4% 0.00 in 543 W/m2
14:49 88.3 °F 67.4 °F 29.77 in SW 4.1 mph 9 mph 50.2% 0.00 in 810 W/m2
14:54 88 °F 67.1 °F 29.77 in WSW 7.1 mph 12 mph 50.2% 0.00 in 831 W/m2
14:59 87.4 °F 67.5 °F 29.77 in West 7.2 mph 13 mph 51.8% 0.00 in 789 W/m2
15:04 87.6 °F 67.5 °F 29.77 in West 6.2 mph 11 mph 51.4% 0.00 in 752 W/m2
15:09 88.3 °F 68.3 °F 29.77 in WSW 3.5 mph 11 mph 51.8% 0.00 in 703 W/m2
15:14 88.3 °F 67.6 °F 29.78 in SW 8.2 mph 14 mph 50.4% 0.00 in 731 W/m2
15:19 87.3 °F 67.5 °F 29.78 in West 6.4 mph 12 mph 52% 0.00 in 777 W/m2
15:24 87.5 °F 67.5 °F 29.78 in West 8.3 mph 12 mph 51.6% 0.00 in 777 W/m2
15:29 86.5 °F 67.7 °F 29.78 in WNW 8 mph 16 mph 53.6% 0.00 in 476 W/m2
15:34 84.5 °F 67.3 °F 29.78 in West 6.7 mph 13 mph 56.4% 0.00 in 278 W/m2
15:39 83.4 °F 67.3 °F 29.79 in WNW 7.8 mph 16 mph 58.4% 0.00 in 287 W/m2
15:44 82.4 °F 66.9 °F 29.79 in WNW 7.6 mph 16 mph 59.6% 0.00 in 279 W/m2
15:49 81.1 °F 66.6 °F 29.80 in WNW 9.6 mph 16 mph 61.4% 0.00 in 318 W/m2
15:54 80.4 °F 66.7 °F 29.80 in WNW 7.2 mph 16 mph 63% 0.00 in 378 W/m2
15:58 79.5 °F 65.9 °F 29.80 in NW 11 mph 16 mph 63.3% 0.00 in 427 W/m2
16:04 78.3 °F 64.6 °F 29.80 in NNW 11 mph 15 mph 63% 0.00 in 408 W/m2
16:09 78.2 °F 64.7 °F 29.81 in NW 4.7 mph 15 mph 63.4% 0.00 in 380 W/m2
16:14 78.2 °F 65.2 °F 29.81 in WNW 10.2 mph 18 mph 64.4% 0.00 in 464 W/m2
16:19 77.3 °F 65.2 °F 29.81 in WNW 8.4 mph 18 mph 66.3% 0.00 in 373 W/m2
16:24 77 °F 65.1 °F 29.81 in NW 7.8 mph 12 mph 67% 0.00 in 271 W/m2
16:29 76.7 °F 65.4 °F 29.82 in West 5.9 mph 15 mph 68% 0.00 in 313 W/m2
16:34 76.4 °F 65.1 °F 29.82 in West 8.7 mph 15 mph 68% 0.00 in 301 W/m2
16:39 76 °F 64.7 °F 29.82 in WNW 9.6 mph 15 mph 68.2% 0.00 in 262 W/m2
16:44 75.5 °F 64.4 °F 29.82 in WNW 7.4 mph 13 mph 68.6% 0.00 in 204 W/m2
16:49 75.3 °F 64.5 °F 29.82 in West 7 mph 11 mph 69% 0.00 in 220 W/m2
16:54 74.9 °F 63.9 °F 29.82 in West 7.5 mph 15 mph 68.8% 0.00 in 216 W/m2
16:59 74.1 °F 63.3 °F 29.82 in WNW 6.6 mph 16 mph 69% 0.00 in 172 W/m2
17:04 73.8 °F 63 °F 29.82 in West 8.2 mph 12 mph 69% 0.00 in 113 W/m2
17:09 73.6 °F 62.5 °F 29.82 in WNW 6.5 mph 13 mph 68.4% 0.00 in 123 W/m2
17:14 73.2 °F 62.3 °F 29.82 in WNW 6.4 mph 11 mph 68.6% 0.00 in 156 W/m2
17:19 73.3 °F 62.5 °F 29.82 in WNW 7 mph 15 mph 69% 0.00 in 183 W/m2
17:24 73 °F 62.4 °F 29.83 in WNW 8 mph 16 mph 69.6% 0.00 in 178 W/m2
17:29 72.9 °F 62.8 °F 29.83 in WNW 6.6 mph 12 mph 70.6% 0.00 in 176 W/m2
17:34 72.7 °F 62.9 °F 29.83 in WNW 7.8 mph 13 mph 71.3% 0.00 in 176 W/m2
17:39 72.6 °F 63.1 °F 29.83 in WNW 4.9 mph 16 mph 72.2% 0.00 in 172 W/m2
17:44 72.3 °F 63.1 °F 29.83 in WNW 7.4 mph 13 mph 73% 0.00 in 149 W/m2
17:49 72.3 °F 63.3 °F 29.83 in WNW 7.8 mph 12 mph 73.6% 0.00 in 113 W/m2
17:54 72.2 °F 63.4 °F 29.84 in WNW 7.4 mph 13 mph 74% 0.00 in 172 W/m2
17:59 72.1 °F 63.3 °F 29.83 in WNW 7.8 mph 12 mph 74% 0.00 in 193 W/m2
18:04 72.1 °F 63.3 °F 29.83 in WNW 5.6 mph 13 mph 74% 0.00 in 195 W/m2
18:08 72.1 °F 63.3 °F 29.83 in West 6.9 mph 13 mph 74.3% 0.00 in 207 W/m2
18:14 71.8 °F 63.5 °F 29.84 in WNW 8.5 mph 12 mph 75% 0.00 in 253 W/m2
18:19 71.7 °F 63.4 °F 29.84 in West 7 mph 12 mph 75% 0.00 in 209 W/m2
18:24 71.9 °F 63.6 °F 29.84 in WNW 4.6 mph 8 mph 75% 0.00 in 186 W/m2
18:29 71.8 °F 63.5 °F 29.84 in West 5.9 mph 12 mph 75% 0.00 in 135 W/m2
18:34 71.8 °F 63.5 °F 29.84 in WNW 3.5 mph 11 mph 75% 0.00 in 120 W/m2
18:39 71.8 °F 63.5 °F 29.85 in West 6.8 mph 11 mph 75% 0.00 in 120 W/m2
18:44 71.4 °F 63.4 °F 29.85 in West 6.2 mph 13 mph 75.8% 0.00 in 120 W/m2
18:49 71 °F 63.1 °F 29.85 in West 6.1 mph 10 mph 76% 0.00 in 118 W/m2
18:54 70.9 °F 63.2 °F 29.85 in West 4.9 mph 10 mph 76.8% 0.00 in 109 W/m2
18:59 70.6 °F 63.3 °F 29.85 in WNW 4.4 mph 10 mph 77.6% 0.00 in 104 W/m2
19:04 70.4 °F 63.3 °F 29.85 in WNW 4.5 mph 9 mph 78% 0.00 in 95 W/m2
19:09 70.3 °F 63.2 °F 29.85 in WNW 3.6 mph 9 mph 78.4% 0.00 in 84 W/m2
19:14 70.1 °F 63.2 °F 29.85 in WNW 5.1 mph 10 mph 79% 0.00 in 74 W/m2
19:19 70 °F 63.5 °F 29.85 in WNW 5.2 mph 9 mph 80% 0.00 in 65 W/m2
19:24 69.8 °F 63.3 °F 29.85 in WNW 5.3 mph 12 mph 80% 0.00 in 47 W/m2
19:29 69.5 °F 63.1 °F 29.86 in WNW 5.6 mph 11 mph 80.2% 0.00 in 40 W/m2
19:34 69.4 °F 63.2 °F 29.86 in West 6.2 mph 11 mph 81% 0.00 in 32 W/m2
19:39 69 °F 63 °F 29.86 in WNW 7.3 mph 12 mph 81.4% 0.00 in 23 W/m2
19:44 68.7 °F 63 °F 29.86 in WNW 6.5 mph 12 mph 82% 0.00 in 21 W/m2
19:49 68.4 °F 63 °F 29.86 in West 6.8 mph 10 mph 82.8% 0.00 in 18 W/m2
19:54 68.2 °F 62.8 °F 29.87 in WNW 6.4 mph 11 mph 83% 0.00 in 12 W/m2
19:59 68.3 °F 63.2 °F 29.87 in WNW 4.4 mph 8 mph 84% 0.00 in 9 W/m2
20:04 68.2 °F 63.1 °F 29.86 in WNW 7.1 mph 13 mph 84% 0.00 in 11 W/m2
20:09 67.9 °F 62.9 °F 29.86 in WNW 5.4 mph 13 mph 84% 0.00 in 9 W/m2
20:14 67.6 °F 62.8 °F 29.87 in WNW 6.6 mph 12 mph 84.4% 0.00 in 7 W/m2
20:19 67.5 °F 62.8 °F 29.87 in WNW 8.2 mph 14 mph 85% 0.00 in 7 W/m2
20:24 67.3 °F 62.6 °F 29.87 in WNW 4.8 mph 13 mph 85% 0.00 in 5 W/m2
20:29 67.1 °F 62.4 °F 29.87 in WNW 6.8 mph 11 mph 85% 0.00 in 0 W/m2
20:34 66.9 °F 62.2 °F 29.87 in WNW 6.2 mph 12 mph 85% 0.00 in 0 W/m2
20:39 66.7 °F 62.1 °F 29.88 in WNW 7.9 mph 14 mph 85% 0.00 in 0 W/m2
20:44 66.5 °F 61.8 °F 29.88 in WNW 8.4 mph 13 mph 85% 0.00 in 0 W/m2
20:49 66.3 °F 61.6 °F 29.88 in NW 6.4 mph 13 mph 85% 0.00 in 0 W/m2
20:54 66 °F 61.3 °F 29.88 in West 5.3 mph 12 mph 85% 0.00 in 0 W/m2
20:59 65.9 °F 61.3 °F 29.88 in West 6 mph 11 mph 85% 0.00 in 0 W/m2
21:04 65.6 °F 60.9 °F 29.88 in WNW 7.5 mph 13 mph 85% 0.00 in 0 W/m2
21:09 65.3 °F 60.6 °F 29.88 in WNW 4.2 mph 12 mph 85% 0.00 in 0 W/m2
21:14 65.2 °F 60.5 °F 29.88 in WNW 6.8 mph 11 mph 85% 0.00 in 0 W/m2
21:19 65.3 °F 60.6 °F 29.90 in West 7.7 mph 13 mph 85% 0.00 in 0 W/m2
21:24 65.1 °F 60.1 °F 29.90 in West 5.2 mph 14 mph 84.2% 0.00 in 0 W/m2
21:29 64.9 °F 59.9 °F 29.90 in WNW 5 mph 10 mph 84% 0.00 in 0 W/m2
21:34 64.9 °F 59.9 °F 29.89 in WNW 4.5 mph 8 mph 84% 0.00 in 0 W/m2
21:39 64.8 °F 59.9 °F 29.89 in West 6.6 mph 11 mph 84% 0.00 in 0 W/m2
21:44 64.6 °F 59.7 °F 29.89 in WNW 5.6 mph 7 mph 84% 0.00 in 0 W/m2
21:49 64.6 °F 59.7 °F 29.89 in WNW 3.7 mph 6 mph 84% 0.00 in 0 W/m2
21:54 64.6 °F 59.5 °F 29.89 in WNW 5.2 mph 10 mph 83.4% 0.00 in 0 W/m2
21:59 64.4 °F 59.2 °F 29.89 in WNW 6.4 mph 9 mph 83% 0.00 in 0 W/m2
22:04 64.3 °F 58.9 °F 29.89 in WNW 7 mph 12 mph 82.4% 0.00 in 0 W/m2
22:09 64.2 °F 58.6 °F 29.90 in West 5.7 mph 10 mph 82% 0.00 in 0 W/m2
22:14 64.2 °F 58.4 °F 29.90 in WNW 4 mph 9 mph 81.2% 0.00 in 0 W/m2
22:19 64.2 °F 58.3 °F 29.90 in WNW 5 mph 12 mph 80.8% 0.00 in 0 W/m2
22:24 64.1 °F 57.8 °F 29.90 in WNW 7.2 mph 15 mph 80% 0.00 in 0 W/m2
22:29 64.1 °F 57.6 °F 29.91 in West 7.1 mph 15 mph 79.4% 0.00 in 0 W/m2
22:34 64 °F 57.4 °F 29.91 in WNW 6.2 mph 13 mph 79% 0.00 in 0 W/m2
22:39 64 °F 57.4 °F 29.91 in WNW 4.3 mph 10 mph 79% 0.00 in 0 W/m2
22:43 64 °F 57.4 °F 29.91 in West 5.2 mph 9 mph 79% 0.00 in 0 W/m2
22:49 64 °F 57.4 °F 29.91 in West 5.8 mph 14 mph 79.2% 0.00 in 0 W/m2
22:54 63.9 °F 57.6 °F 29.91 in West 5 mph 12 mph 80% 0.00 in 0 W/m2
22:59 63.7 °F 57.7 °F 29.91 in WNW 5.2 mph 9 mph 80.8% 0.00 in 0 W/m2
23:04 63.6 °F 57.7 °F 29.91 in WNW 7 mph 14 mph 81% 0.00 in 0 W/m2
23:09 63.3 °F 57.4 °F 29.91 in WNW 6.2 mph 13 mph 81% 0.00 in 0 W/m2
23:14 63.1 °F 57.3 °F 29.91 in WNW 7.4 mph 10 mph 81.2% 0.00 in 0 W/m2
23:19 63.1 °F 57.6 °F 29.91 in WNW 5 mph 10 mph 82% 0.00 in 0 W/m2
23:23 62.9 °F 57.3 °F 29.91 in WNW 5.7 mph 9 mph 82% 0.00 in 0 W/m2
23:29 62.6 °F 57.2 °F 29.91 in West 4.4 mph 9 mph 82.4% 0.00 in 0 W/m2
23:34 62.3 °F 57.1 °F 29.92 in West 4.7 mph 9 mph 83% 0.00 in 0 W/m2
23:39 62.1 °F 57.1 °F 29.92 in WNW 4 mph 8 mph 83.6% 0.00 in 0 W/m2
23:44 62 °F 57.1 °F 29.92 in WNW 3.7 mph 9 mph 84% 0.00 in 0 W/m2
23:49 61.9 °F 57.1 °F 29.91 in WNW 5.4 mph 8 mph 84.4% 0.00 in 0 W/m2
23:54 61.7 °F 57.2 °F 29.91 in WNW 5.5 mph 10 mph 85% 0.00 in 0 W/m2
23:59 61.6 °F 57.1 °F 29.91 in WNW 5 mph 10 mph 85% 0.00 in 0 W/m2
Bath Spa Weather
Compliments of Weather Underground - 2 mb